createdAt,value
2022-09-05T00:02:29.188Z,54.17
2022-09-05T00:05:24.509Z,54.16
2022-09-05T00:08:25.606Z,55.70
2022-09-05T00:11:43.191Z,55.21
2022-09-05T00:13:48.975Z,55.03
2022-09-05T00:16:37.501Z,54.92
2022-09-05T00:24:20.190Z,54.68
2022-09-05T00:24:27.839Z,55.06
2022-09-05T00:25:30.435Z,55.94
2022-09-05T00:27:48.110Z,55.31
2022-09-05T00:31:08.073Z,55.44
2022-09-05T00:33:03.623Z,55.67
2022-09-05T00:35:53.063Z,55.96
2022-09-05T00:38:32.127Z,55.65
2022-09-05T00:41:02.477Z,56.02
2022-09-05T00:43:43.805Z,55.91
2022-09-05T00:46:26.264Z,56.06
2022-09-05T00:49:13.565Z,56.80
2022-09-05T00:51:46.416Z,56.61
2022-09-05T00:54:40.576Z,56.66
2022-09-05T00:57:18.093Z,56.72
2022-09-05T01:00:22.717Z,56.91
2022-09-05T01:03:10.034Z,56.87
2022-09-05T01:05:52.182Z,56.68
2022-09-05T01:08:43.114Z,56.98
2022-09-05T01:11:37.132Z,56.76
2022-09-05T01:14:29.259Z,56.39
2022-09-05T01:17:30.241Z,56.28
2022-09-05T01:20:19.230Z,56.23
2022-09-05T01:23:20.478Z,56.75
2022-09-05T01:26:10.003Z,56.57
2022-09-05T01:29:17.835Z,56.44
2022-09-05T01:32:03.600Z,56.47
2022-09-05T01:34:41.562Z,56.37
2022-09-05T01:37:32.673Z,56.59
2022-09-05T01:40:14.438Z,56.59
2022-09-05T01:42:43.661Z,56.49
2022-09-05T01:45:29.087Z,57.02
2022-09-05T01:48:18.213Z,56.60
2022-09-05T01:51:05.358Z,57.07
2022-09-05T01:53:39.220Z,57.37
2022-09-05T01:56:13.050Z,57.00
2022-09-05T01:58:54.267Z,57.74
2022-09-05T02:04:13.740Z,57.09
2022-09-05T02:07:22.491Z,57.10
2022-09-05T02:09:55.274Z,57.01
2022-09-05T02:12:44.428Z,56.86
2022-09-05T02:15:21.554Z,57.03
2022-09-05T02:17:54.116Z,58.61
2022-09-05T02:20:35.435Z,57.56
2022-09-05T02:23:40.434Z,57.21
2022-09-05T02:26:08.193Z,57.60
2022-09-05T02:29:02.942Z,57.17
2022-09-05T02:31:44.718Z,56.55
2022-09-05T02:34:20.255Z,57.27
2022-09-05T02:37:09.446Z,57.57
2022-09-05T02:45:00.129Z,57.47
2022-09-05T02:45:17.869Z,58.16
2022-09-05T02:45:46.101Z,57.67
2022-09-05T02:48:22.216Z,58.08
2022-09-05T02:57:26.093Z,58.18
2022-09-05T02:57:41.942Z,58.06
2022-09-05T02:57:43.273Z,57.57
2022-09-05T03:00:02.358Z,58.83
2022-09-05T03:02:43.695Z,59.28
2022-09-05T03:05:24.556Z,59.28
2022-09-05T03:08:12.087Z,59.98
2022-09-05T03:10:55.014Z,60.18
2022-09-05T03:13:53.826Z,59.88
2022-09-05T03:16:47.178Z,60.11
2022-09-05T03:19:47.026Z,60.20
2022-09-05T03:22:53.052Z,59.57
2022-09-05T03:25:43.597Z,60.01
2022-09-05T03:28:38.208Z,61.27
2022-09-05T03:31:26.319Z,60.70
2022-09-05T03:34:32.087Z,61.27
2022-09-05T03:37:33.182Z,61.31
2022-09-05T03:40:15.735Z,61.77
2022-09-05T03:43:00.931Z,62.86
2022-09-05T03:45:54.311Z,63.15
2022-09-05T03:48:44.512Z,62.92
2022-09-05T03:57:08.886Z,62.03
2022-09-05T03:57:16.383Z,61.63
2022-09-05T03:57:18.761Z,61.01
2022-09-05T03:59:55.957Z,60.45
2022-09-05T04:04:39.237Z,60.08
2022-09-05T04:08:17.884Z,61.07
2022-09-05T04:08:27.565Z,61.64
2022-09-05T04:10:32.168Z,61.55
2022-09-05T04:13:07.809Z,62.26
2022-09-05T04:15:46.053Z,63.41
2022-09-05T04:18:25.677Z,63.00
2022-09-05T04:21:05.090Z,62.68
2022-09-05T04:23:37.942Z,62.61
2022-09-05T04:26:14.499Z,61.69
2022-09-05T04:28:53.201Z,62.30
2022-09-05T04:31:29.942Z,63.48
2022-09-05T04:34:21.928Z,62.51
2022-09-05T04:37:03.769Z,63.19
2022-09-05T04:39:34.727Z,63.81
2022-09-05T04:42:09.413Z,63.20
2022-09-05T04:44:48.087Z,62.89
2022-09-05T04:47:21.112Z,63.97
2022-09-05T04:50:10.376Z,63.56
2022-09-05T04:52:43.022Z,63.89
2022-09-05T04:55:18.501Z,64.37
2022-09-05T04:58:07.544Z,64.76
2022-09-05T05:06:01.008Z,63.42
2022-09-05T05:06:16.461Z,63.52
2022-09-05T05:06:30.087Z,64.45
2022-09-05T05:08:43.818Z,64.92
2022-09-05T05:18:03.433Z,63.96
2022-09-05T05:18:11.320Z,64.64
2022-09-05T05:18:11.987Z,64.65
2022-09-05T05:23:07.385Z,63.67
2022-09-05T05:25:52.571Z,63.67
2022-09-05T05:28:34.514Z,63.94
2022-09-05T05:31:16.031Z,63.27
2022-09-05T05:33:48.890Z,63.27
2022-09-05T05:36:21.723Z,63.98
2022-09-05T05:39:00.488Z,63.05
2022-09-05T05:41:48.383Z,64.96
2022-09-05T05:44:21.454Z,64.96
2022-09-05T05:47:03.244Z,63.28
2022-09-05T05:49:38.839Z,64.08
2022-09-05T05:52:29.572Z,63.78
2022-09-05T05:55:50.625Z,63.14
2022-09-05T05:58:11.921Z,63.61
2022-09-05T06:00:51.914Z,62.53
2022-09-05T06:03:51.969Z,62.07
2022-09-05T06:06:33.741Z,62.99
2022-09-05T06:14:51.551Z,63.31
2022-09-05T06:15:00.623Z,62.23
2022-09-05T06:15:24.658Z,62.70
2022-09-05T06:18:03.435Z,62.18
2022-09-05T06:22:05.454Z,61.49
2022-09-05T06:24:10.897Z,61.19
2022-09-05T06:26:51.981Z,60.70
2022-09-05T06:29:55.527Z,60.47
2022-09-05T06:32:55.357Z,59.94
2022-09-05T06:35:28.098Z,59.47
2022-09-05T06:38:26.942Z,58.81
2022-09-05T06:41:02.908Z,58.61
2022-09-05T06:43:54.339Z,58.15
2022-09-05T06:46:55.084Z,58.23
2022-09-05T06:49:30.818Z,58.23
2022-09-05T06:52:32.935Z,57.98
2022-09-05T06:55:38.666Z,57.56
2022-09-05T06:58:27.158Z,57.17
2022-09-05T07:00:59.792Z,57.03
2022-09-05T07:03:52.206Z,56.54
2022-09-05T07:06:49.411Z,55.61
2022-09-05T07:09:39.110Z,55.63
2022-09-05T07:12:21.952Z,54.81
2022-09-05T07:15:08.826Z,54.65
2022-09-05T07:18:06.185Z,53.26
2022-09-05T07:20:23.781Z,53.18
2022-09-05T07:23:47.676Z,51.91
2022-09-05T07:25:37.487Z,51.91
2022-09-05T07:28:28.837Z,51.88
2022-09-05T07:30:44.180Z,50.92
2022-09-05T07:33:22.523Z,50.34
2022-09-05T07:35:53.530Z,50.09
2022-09-05T07:38:35.289Z,49.07
2022-09-05T07:41:06.972Z,49.07
2022-09-05T07:43:40.085Z,48.57
2022-09-05T07:46:15.807Z,48.54
2022-09-05T07:48:48.409Z,47.63
2022-09-05T07:56:55.459Z,46.30
2022-09-05T07:57:08.355Z,44.83
2022-09-05T07:57:23.148Z,43.15
2022-09-05T07:59:19.221Z,43.59
2022-09-05T08:01:52.162Z,43.00
2022-09-05T08:04:32.080Z,43.66
2022-09-05T08:07:48.759Z,42.86
2022-09-05T08:10:07.063Z,41.53
2022-09-05T08:12:27.839Z,41.49
2022-09-05T08:15:06.607Z,40.39
2022-09-05T08:17:59.089Z,41.48
2022-09-05T08:20:55.693Z,41.48
2022-09-05T08:23:37.610Z,38.90
2022-09-05T08:26:28.954Z,39.90
2022-09-05T08:29:30.368Z,40.30
2022-09-05T08:32:14.691Z,38.39
2022-09-05T08:34:47.506Z,38.03
2022-09-05T08:37:22.870Z,37.50
2022-09-05T08:40:10.362Z,36.47
2022-09-05T08:42:35.346Z,37.41
2022-09-05T08:46:43.349Z,38.03
2022-09-05T08:48:17.990Z,37.49
2022-09-05T08:51:24.962Z,35.34
2022-09-05T08:54:21.172Z,35.81
2022-09-05T08:57:02.515Z,35.48
2022-09-05T09:00:18.546Z,35.56
2022-09-05T09:02:47.229Z,35.36
2022-09-05T09:05:58.112Z,35.41
2022-09-05T09:08:15.676Z,34.63
2022-09-05T09:10:55.422Z,34.86
2022-09-05T09:13:37.212Z,35.09
2022-09-05T09:18:56.268Z,35.13
2022-09-05T09:21:49.036Z,33.88
2022-09-05T09:24:40.816Z,33.78
2022-09-05T09:27:31.343Z,32.70
2022-09-05T09:29:56.373Z,31.96
2022-09-05T09:32:26.725Z,32.02
2022-09-05T09:34:59.527Z,31.39
2022-09-05T09:37:59.390Z,31.39
2022-09-05T09:40:28.013Z,31.76
2022-09-05T09:43:15.716Z,30.28
2022-09-05T09:45:57.144Z,30.61
2022-09-05T09:48:50.290Z,29.26
2022-09-05T09:51:47.270Z,29.33
2022-09-05T09:54:28.709Z,28.64
2022-09-05T09:57:20.010Z,29.24
2022-09-05T09:59:59.359Z,29.26
2022-09-05T10:06:30.305Z,29.58
2022-09-05T10:10:44.345Z,28.55
2022-09-05T10:10:48.643Z,27.44
2022-09-05T10:11:40.179Z,27.35
2022-09-05T10:13:44.956Z,27.89
2022-09-05T10:16:34.695Z,28.18
2022-09-05T10:20:07.527Z,26.25
2022-09-05T10:25:19.450Z,26.70
2022-09-05T10:27:57.892Z,26.70
2022-09-05T10:31:18.333Z,26.29
2022-09-05T10:35:14.307Z,26.24
2022-09-05T10:36:31.855Z,24.68
2022-09-05T10:39:23.896Z,24.40
2022-09-05T10:42:25.236Z,25.11
2022-09-05T10:44:57.884Z,23.91
2022-09-05T10:47:33.536Z,24.46
2022-09-05T10:50:31.325Z,24.46
2022-09-05T10:53:06.603Z,23.05
2022-09-05T11:02:16.294Z,22.81
2022-09-05T11:02:30.484Z,23.69
2022-09-05T11:04:46.616Z,23.16
2022-09-05T11:07:29.396Z,23.35
2022-09-05T11:10:04.156Z,22.39
2022-09-05T11:12:57.779Z,23.40
2022-09-05T11:16:03.996Z,23.18
2022-09-05T11:18:30.343Z,22.97
2022-09-05T11:21:32.249Z,23.04
2022-09-05T11:24:27.629Z,22.32
2022-09-05T11:27:23.662Z,23.03
2022-09-05T11:29:45.437Z,23.33
2022-09-05T11:36:30.912Z,23.33
2022-09-05T11:39:51.442Z,22.40
2022-09-05T11:39:57.302Z,21.89
2022-09-05T11:40:59.161Z,21.89
2022-09-05T11:43:39.629Z,21.49
2022-09-05T11:46:33.149Z,21.66
2022-09-05T11:49:08.475Z,22.24
2022-09-05T11:52:09.737Z,21.69
2022-09-05T11:55:04.718Z,21.53
2022-09-05T11:57:49.809Z,21.89
2022-09-05T12:00:31.614Z,22.00
2022-09-05T12:03:53.542Z,21.33
2022-09-05T12:06:21.220Z,21.40
2022-09-05T12:08:57.006Z,21.93
2022-09-05T12:11:43.209Z,21.76
2022-09-05T12:14:31.442Z,21.61
2022-09-05T12:17:10.176Z,21.75
2022-09-05T12:19:41.982Z,21.85
2022-09-05T12:22:32.685Z,21.85
2022-09-05T12:27:20.913Z,21.24
2022-09-05T12:28:28.557Z,21.63
2022-09-05T12:30:42.385Z,21.04
2022-09-05T12:35:59.502Z,21.05
2022-09-05T12:40:48.317Z,20.80
2022-09-05T12:40:59.843Z,20.85
2022-09-05T12:41:42.900Z,20.42
2022-09-05T12:44:37.818Z,20.42
2022-09-05T12:46:37.312Z,21.03
2022-09-05T12:49:11.995Z,20.61
2022-09-05T12:51:47.682Z,20.96
2022-09-05T12:54:38.253Z,20.70
2022-09-05T13:01:08.146Z,20.04
2022-09-05T13:03:07.069Z,20.44
2022-09-05T13:03:14.501Z,20.72
2022-09-05T13:05:01.920Z,19.93
2022-09-05T13:07:43.962Z,20.20
2022-09-05T13:13:56.611Z,19.89
2022-09-05T13:14:54.537Z,19.71
2022-09-05T13:15:37.295Z,19.47
2022-09-05T13:18:17.379Z,19.86
2022-09-05T13:21:08.432Z,19.36
2022-09-05T13:23:41.830Z,19.72
2022-09-05T13:26:23.964Z,19.84
2022-09-05T13:29:09.993Z,19.76
2022-09-05T13:37:54.813Z,20.15
2022-09-05T13:38:04.393Z,20.07
2022-09-05T13:38:14.440Z,20.15
2022-09-05T13:39:55.264Z,19.40
2022-09-05T13:42:33.801Z,19.79
2022-09-05T13:45:04.102Z,19.10
2022-09-05T13:47:51.606Z,19.48
2022-09-05T13:50:29.653Z,19.73
2022-09-05T13:53:24.754Z,19.41
2022-09-05T13:56:03.505Z,18.87
2022-09-05T13:58:42.637Z,18.43
2022-09-05T14:01:25.753Z,18.58
2022-09-05T14:10:29.160Z,18.63
2022-09-05T14:13:24.394Z,19.07
2022-09-05T14:16:02.719Z,18.47
2022-09-05T14:18:36.596Z,18.82
2022-09-05T14:21:17.105Z,19.00
2022-09-05T14:23:58.300Z,19.17
2022-09-05T14:26:39.883Z,18.50
2022-09-05T14:29:14.456Z,19.23
2022-09-05T14:37:41.384Z,18.87
2022-09-05T14:37:59.418Z,18.01
2022-09-05T14:38:15.135Z,18.86
2022-09-05T14:41:18.445Z,18.98
2022-09-05T14:44:07.836Z,18.65
2022-09-05T14:46:42.962Z,19.35
2022-09-05T14:49:51.117Z,19.43
2022-09-05T14:52:35.469Z,19.12
2022-09-05T15:02:43.486Z,20.07
2022-09-05T15:02:44.857Z,19.12
2022-09-05T15:03:03.786Z,19.66
2022-09-05T15:05:32.584Z,19.69
2022-09-05T15:08:16.249Z,19.78
2022-09-05T15:12:18.914Z,19.52
2022-09-05T15:13:19.477Z,20.05
2022-09-05T15:16:02.532Z,20.27
2022-09-05T15:18:31.504Z,20.12
2022-09-05T15:21:33.198Z,19.78
2022-09-05T15:24:03.637Z,19.95
2022-09-05T15:26:34.792Z,19.59
2022-09-05T15:29:14.691Z,19.07
2022-09-05T15:31:45.482Z,19.25
2022-09-05T15:34:28.994Z,19.26
2022-09-05T15:37:09.131Z,19.30
2022-09-05T15:39:32.179Z,19.59
2022-09-05T15:42:16.866Z,19.70
2022-09-05T15:45:08.751Z,20.10
2022-09-05T15:47:24.287Z,19.73
2022-09-05T15:50:00.378Z,19.97
2022-09-05T15:52:41.822Z,20.18
2022-09-05T15:55:23.135Z,20.47
2022-09-05T15:57:55.965Z,21.10
2022-09-05T16:00:51.230Z,21.18
2022-09-05T16:04:28.705Z,21.18
2022-09-05T16:10:40.125Z,21.11
2022-09-05T16:10:49.438Z,21.23
2022-09-05T16:11:59.490Z,21.57
2022-09-05T16:14:11.276Z,21.55
2022-09-05T16:23:11.753Z,21.34
2022-09-05T16:23:15.839Z,21.93
2022-09-05T16:23:32.259Z,21.73
2022-09-05T16:24:59.908Z,21.94
2022-09-05T16:27:03.286Z,21.36
2022-09-05T16:29:36.085Z,21.36
2022-09-05T16:32:29.109Z,21.49
2022-09-05T16:35:14.131Z,21.75
2022-09-05T16:37:52.442Z,21.70
2022-09-05T16:40:27.573Z,21.61
2022-09-05T16:43:00.378Z,21.65
2022-09-05T16:45:49.361Z,21.51
2022-09-05T16:48:50.130Z,21.97
2022-09-05T16:51:35.777Z,21.90
2022-09-05T16:54:40.919Z,22.40
2022-09-05T16:57:13.469Z,22.85
2022-09-05T16:59:45.656Z,22.76
2022-09-05T17:02:40.308Z,23.25
2022-09-05T17:05:15.695Z,23.04
2022-09-05T17:08:00.613Z,23.57
2022-09-05T17:13:40.901Z,23.85
2022-09-05T17:16:17.164Z,24.39
2022-09-05T17:18:51.470Z,24.14
2022-09-05T17:24:21.669Z,24.67
2022-09-05T17:29:17.194Z,25.27
2022-09-05T17:29:30.088Z,25.25
2022-09-05T17:32:16.144Z,25.36
2022-09-05T17:34:52.592Z,24.87
2022-09-05T17:38:11.433Z,24.96
2022-09-05T17:40:37.759Z,25.36
2022-09-05T17:43:29.167Z,25.36
2022-09-05T17:46:18.520Z,25.53
2022-09-05T17:49:18.726Z,25.84
2022-09-05T17:51:31.663Z,25.64
2022-09-05T17:54:06.112Z,26.07
2022-09-05T17:56:40.691Z,25.75
2022-09-05T17:59:24.461Z,26.41
2022-09-05T18:02:12.218Z,26.41
2022-09-05T18:04:50.649Z,26.75
2022-09-05T18:07:32.714Z,27.02
2022-09-05T18:10:14.492Z,27.02
2022-09-05T18:13:14.253Z,27.14
2022-09-05T18:15:32.547Z,27.11
2022-09-05T18:18:07.006Z,27.27
2022-09-05T18:21:09.363Z,27.77
2022-09-05T18:23:39.757Z,27.82
2022-09-05T18:26:24.140Z,28.17
2022-09-05T18:29:02.758Z,28.56
2022-09-05T18:31:43.541Z,28.36
2022-09-05T18:34:19.303Z,28.23
2022-09-05T18:36:56.128Z,28.70
2022-09-05T18:39:29.549Z,28.74
2022-09-05T18:42:33.682Z,29.30
2022-09-05T18:44:49.793Z,29.18
2022-09-05T18:47:33.902Z,28.74
2022-09-05T18:50:24.409Z,29.11
2022-09-05T18:52:38.951Z,28.74
2022-09-05T18:56:12.453Z,29.24
2022-09-05T18:58:08.941Z,29.35
2022-09-05T19:00:44.778Z,29.17
2022-09-05T19:03:31.419Z,29.33
2022-09-05T19:06:34.607Z,28.94
2022-09-05T19:08:47.041Z,29.11
2022-09-05T19:11:28.186Z,28.75
2022-09-05T19:14:25.789Z,28.83
2022-09-05T19:16:43.442Z,29.36
2022-09-05T19:19:16.738Z,29.42
2022-09-05T19:22:33.305Z,29.16
2022-09-05T19:24:42.683Z,29.20
2022-09-05T19:27:28.000Z,29.60
2022-09-05T19:36:47.359Z,32.50
2022-09-05T19:36:51.244Z,33.87
2022-09-05T19:37:13.893Z,35.48
2022-09-05T19:37:26.322Z,37.13
2022-09-05T19:46:17.059Z,37.13
2022-09-05T19:47:30.684Z,38.64
2022-09-05T19:47:41.361Z,39.49
2022-09-05T19:50:11.251Z,40.29
2022-09-05T19:52:41.123Z,40.24
2022-09-05T19:55:25.958Z,40.82
2022-09-05T19:58:19.174Z,41.38
2022-09-05T20:00:29.192Z,41.09
2022-09-05T20:03:01.073Z,40.77
2022-09-05T20:05:31.266Z,40.32
2022-09-05T20:08:01.964Z,40.32
2022-09-05T20:10:34.381Z,40.05
2022-09-05T20:13:15.763Z,40.18
2022-09-05T20:15:45.933Z,40.18
2022-09-05T20:18:21.433Z,40.18
2022-09-05T20:20:57.147Z,39.71
2022-09-05T20:23:31.021Z,39.56
2022-09-05T20:26:01.927Z,39.30
2022-09-05T20:28:37.974Z,39.52
2022-09-05T20:31:10.805Z,39.14
2022-09-05T20:33:43.589Z,39.16
2022-09-05T20:42:35.549Z,39.17
2022-09-05T20:43:21.186Z,39.25
2022-09-05T20:43:28.825Z,39.67
2022-09-05T20:44:15.525Z,39.90
2022-09-05T20:54:10.174Z,39.65
2022-09-05T20:54:17.177Z,40.30
2022-09-05T20:54:18.858Z,39.87
2022-09-05T20:54:53.179Z,40.52
2022-09-05T20:57:28.930Z,40.47
2022-09-05T21:00:07.565Z,40.46
2022-09-05T21:02:37.139Z,40.40
2022-09-05T21:05:21.113Z,40.45
2022-09-05T21:07:46.046Z,40.08
2022-09-05T21:10:23.380Z,40.08
2022-09-05T21:12:58.939Z,39.81
2022-09-05T21:15:53.029Z,40.27
2022-09-05T21:18:15.985Z,40.68
2022-09-05T21:21:29.025Z,40.46
2022-09-05T21:23:40.137Z,40.70
2022-09-05T21:26:25.193Z,41.54
2022-09-05T21:29:08.940Z,41.71
2022-09-05T21:31:54.360Z,42.35
2022-09-05T21:34:25.068Z,44.32
2022-09-05T21:37:06.828Z,44.32
2022-09-05T21:39:34.770Z,44.48
2022-09-05T21:43:36.126Z,44.96
2022-09-05T21:47:43.438Z,47.07
2022-09-05T21:47:46.381Z,49.14
2022-09-05T21:49:41.052Z,48.67
2022-09-05T21:52:11.685Z,50.44
2022-09-05T21:56:35.960Z,50.17
2022-09-05T21:59:28.692Z,50.65
2022-09-05T22:00:07.085Z,50.99
2022-09-05T22:02:32.473Z,49.72
2022-09-05T22:05:04.646Z,50.60
2022-09-05T22:07:37.466Z,50.60
2022-09-05T22:10:10.362Z,50.91
2022-09-05T22:12:40.480Z,50.48
2022-09-05T22:15:29.121Z,50.40
2022-09-05T22:17:47.080Z,49.60
2022-09-05T22:20:20.869Z,50.40
2022-09-05T22:22:56.576Z,49.96
2022-09-05T22:25:28.664Z,49.36
2022-09-05T22:28:07.348Z,50.03
2022-09-05T22:30:38.681Z,50.66
2022-09-05T22:33:09.860Z,49.32
2022-09-05T22:35:40.208Z,49.90
2022-09-05T22:38:17.846Z,49.58
2022-09-05T22:40:44.571Z,49.35
2022-09-05T22:43:14.503Z,49.35
2022-09-05T22:45:44.270Z,49.12
2022-09-05T22:48:15.530Z,48.88
2022-09-05T22:50:45.461Z,49.47
2022-09-05T22:53:15.455Z,49.27
2022-09-05T22:55:45.580Z,48.83
2022-09-05T22:58:16.600Z,49.11
2022-09-05T23:00:46.460Z,48.90
2022-09-05T23:03:16.591Z,49.60
2022-09-05T23:05:47.018Z,51.54
2022-09-05T23:08:16.915Z,51.54
2022-09-05T23:10:46.391Z,51.85
2022-09-05T23:13:16.160Z,52.11
2022-09-05T23:15:45.933Z,53.13
2022-09-05T23:18:15.684Z,52.76
2022-09-05T23:20:45.457Z,52.53
2022-09-05T23:23:15.214Z,53.17
2022-09-05T23:25:45.011Z,54.51
2022-09-05T23:28:14.779Z,54.86
2022-09-05T23:30:44.651Z,54.22
2022-09-05T23:33:14.705Z,54.72
2022-09-05T23:35:44.474Z,54.64
2022-09-05T23:38:14.220Z,55.08
2022-09-05T23:40:46.252Z,55.26
2022-09-05T23:43:15.970Z,55.64
2022-09-05T23:45:47.807Z,55.58
2022-09-05T23:48:17.757Z,55.98
2022-09-05T23:50:47.601Z,55.88
2022-09-05T23:53:18.071Z,56.10
2022-09-05T23:55:47.930Z,56.17
2022-09-05T23:58:18.121Z,55.39
